sensor_id;sensor_type;location;lat;lon;timestamp;P1;durP1;ratioP1;P2;durP2;ratioP2
44328;SDS011;30039;51.462;6.892;2023-03-08T00:01:19;15.63;;;7.18;;
44328;SDS011;30039;51.462;6.892;2023-03-08T00:04:08;11.68;;;6.90;;
44328;SDS011;30039;51.462;6.892;2023-03-08T00:06:54;11.95;;;6.75;;
44328;SDS011;30039;51.462;6.892;2023-03-08T00:09:40;12.75;;;7.18;;
44328;SDS011;30039;51.462;6.892;2023-03-08T00:12:27;15.80;;;7.60;;
44328;SDS011;30039;51.462;6.892;2023-03-08T00:15:13;12.63;;;6.95;;
44328;SDS011;30039;51.462;6.892;2023-03-08T00:17:59;14.95;;;7.95;;
44328;SDS011;30039;51.462;6.892;2023-03-08T00:20:44;15.68;;;7.88;;
44328;SDS011;30039;51.462;6.892;2023-03-08T00:23:30;14.95;;;7.78;;
44328;SDS011;30039;51.462;6.892;2023-03-08T00:26:16;13.25;;;7.47;;
44328;SDS011;30039;51.462;6.892;2023-03-08T00:29:01;14.48;;;7.13;;
44328;SDS011;30039;51.462;6.892;2023-03-08T00:31:47;14.05;;;7.43;;
44328;SDS011;30039;51.462;6.892;2023-03-08T00:34:32;16.77;;;7.57;;
44328;SDS011;30039;51.462;6.892;2023-03-08T00:37:18;16.27;;;7.85;;
44328;SDS011;30039;51.462;6.892;2023-03-08T00:40:04;13.32;;;7.20;;
44328;SDS011;30039;51.462;6.892;2023-03-08T00:42:50;14.45;;;7.45;;
44328;SDS011;30039;51.462;6.892;2023-03-08T00:45:35;15.35;;;7.78;;
44328;SDS011;30039;51.462;6.892;2023-03-08T00:48:21;13.80;;;7.30;;
44328;SDS011;30039;51.462;6.892;2023-03-08T00:51:07;14.60;;;7.47;;
44328;SDS011;30039;51.462;6.892;2023-03-08T00:53:53;12.13;;;6.78;;
44328;SDS011;30039;51.462;6.892;2023-03-08T00:56:38;14.70;;;7.53;;
44328;SDS011;30039;51.462;6.892;2023-03-08T00:59:24;13.57;;;8.07;;
44328;SDS011;30039;51.462;6.892;2023-03-08T01:02:10;14.30;;;7.40;;
44328;SDS011;30039;51.462;6.892;2023-03-08T01:04:55;15.13;;;7.13;;
44328;SDS011;30039;51.462;6.892;2023-03-08T01:07:41;15.60;;;6.93;;
44328;SDS011;30039;51.462;6.892;2023-03-08T01:10:27;13.00;;;6.72;;
44328;SDS011;30039;51.462;6.892;2023-03-08T01:13:12;11.95;;;6.60;;
44328;SDS011;30039;51.462;6.892;2023-03-08T01:15:58;12.13;;;7.20;;
44328;SDS011;30039;51.462;6.892;2023-03-08T01:18:44;13.55;;;7.10;;
44328;SDS011;30039;51.462;6.892;2023-03-08T01:21:30;13.98;;;7.10;;
44328;SDS011;30039;51.462;6.892;2023-03-08T01:24:16;13.43;;;6.50;;
44328;SDS011;30039;51.462;6.892;2023-03-08T01:27:01;10.77;;;6.57;;
44328;SDS011;30039;51.462;6.892;2023-03-08T01:29:47;10.55;;;6.20;;
44328;SDS011;30039;51.462;6.892;2023-03-08T01:32:32;13.18;;;6.93;;
44328;SDS011;30039;51.462;6.892;2023-03-08T01:35:19;10.80;;;6.22;;
44328;SDS011;30039;51.462;6.892;2023-03-08T01:38:05;11.32;;;6.25;;
44328;SDS011;30039;51.462;6.892;2023-03-08T01:40:55;10.23;;;5.45;;
44328;SDS011;30039;51.462;6.892;2023-03-08T01:43:41;11.80;;;6.28;;
44328;SDS011;30039;51.462;6.892;2023-03-08T01:46:34;11.88;;;6.18;;
44328;SDS011;30039;51.462;6.892;2023-03-08T01:54:56;11.48;;;6.10;;
44328;SDS011;30039;51.462;6.892;2023-03-08T01:57:43;11.15;;;5.40;;
44328;SDS011;30039;51.462;6.892;2023-03-08T02:00:30;9.00;;;5.50;;
44328;SDS011;30039;51.462;6.892;2023-03-08T02:03:15;10.32;;;5.35;;
44328;SDS011;30039;51.462;6.892;2023-03-08T02:06:01;9.25;;;5.82;;
44328;SDS011;30039;51.462;6.892;2023-03-08T02:08:48;10.93;;;5.75;;
44328;SDS011;30039;51.462;6.892;2023-03-08T02:11:34;9.32;;;5.53;;
44328;SDS011;30039;51.462;6.892;2023-03-08T02:14:21;12.32;;;6.40;;
44328;SDS011;30039;51.462;6.892;2023-03-08T02:17:07;9.32;;;6.03;;
44328;SDS011;30039;51.462;6.892;2023-03-08T02:22:40;8.88;;;5.47;;
44328;SDS011;30039;51.462;6.892;2023-03-08T02:25:25;9.95;;;6.13;;
44328;SDS011;30039;51.462;6.892;2023-03-08T02:28:11;11.63;;;5.82;;
44328;SDS011;30039;51.462;6.892;2023-03-08T02:30:57;9.68;;;5.53;;
44328;SDS011;30039;51.462;6.892;2023-03-08T02:33:52;9.32;;;5.85;;
44328;SDS011;30039;51.462;6.892;2023-03-08T02:36:38;8.70;;;5.07;;
44328;SDS011;30039;51.462;6.892;2023-03-08T02:39:23;11.93;;;5.90;;
44328;SDS011;30039;51.462;6.892;2023-03-08T02:42:09;9.65;;;5.75;;
44328;SDS011;30039;51.462;6.892;2023-03-08T02:44:55;12.93;;;5.82;;
44328;SDS011;30039;51.462;6.892;2023-03-08T02:47:40;10.32;;;5.95;;
44328;SDS011;30039;51.462;6.892;2023-03-08T02:50:26;9.27;;;5.40;;
44328;SDS011;30039;51.462;6.892;2023-03-08T02:53:12;8.95;;;5.88;;
44328;SDS011;30039;51.462;6.892;2023-03-08T02:55:58;10.57;;;6.00;;
44328;SDS011;30039;51.462;6.892;2023-03-08T02:58:43;9.93;;;6.15;;
44328;SDS011;30039;51.462;6.892;2023-03-08T03:01:29;12.77;;;6.03;;
44328;SDS011;30039;51.462;6.892;2023-03-08T03:04:14;12.70;;;5.80;;
44328;SDS011;30039;51.462;6.892;2023-03-08T03:07:00;12.63;;;6.55;;
44328;SDS011;30039;51.462;6.892;2023-03-08T03:09:46;13.40;;;6.45;;
44328;SDS011;30039;51.462;6.892;2023-03-08T03:12:31;10.75;;;5.90;;
44328;SDS011;30039;51.462;6.892;2023-03-08T03:15:17;11.10;;;6.32;;
44328;SDS011;30039;51.462;6.892;2023-03-08T03:18:03;10.48;;;6.40;;
44328;SDS011;30039;51.462;6.892;2023-03-08T03:20:50;12.45;;;6.55;;
44328;SDS011;30039;51.462;6.892;2023-03-08T03:23:35;12.45;;;6.45;;
44328;SDS011;30039;51.462;6.892;2023-03-08T03:26:21;12.30;;;6.60;;
44328;SDS011;30039;51.462;6.892;2023-03-08T03:29:07;11.98;;;6.47;;
44328;SDS011;30039;51.462;6.892;2023-03-08T03:31:53;15.10;;;6.47;;
44328;SDS011;30039;51.462;6.892;2023-03-08T03:34:39;11.80;;;5.88;;
44328;SDS011;30039;51.462;6.892;2023-03-08T03:37:24;15.13;;;7.00;;
44328;SDS011;30039;51.462;6.892;2023-03-08T03:40:11;11.98;;;6.63;;
44328;SDS011;30039;51.462;6.892;2023-03-08T03:42:58;12.95;;;6.80;;
44328;SDS011;30039;51.462;6.892;2023-03-08T03:45:44;13.07;;;7.03;;
44328;SDS011;30039;51.462;6.892;2023-03-08T03:48:38;11.98;;;6.72;;
44328;SDS011;30039;51.462;6.892;2023-03-08T03:51:24;15.32;;;7.28;;
44328;SDS011;30039;51.462;6.892;2023-03-08T03:54:10;17.05;;;7.18;;
44328;SDS011;30039;51.462;6.892;2023-03-08T03:56:55;11.98;;;7.07;;
44328;SDS011;30039;51.462;6.892;2023-03-08T03:59:42;12.55;;;7.03;;
44328;SDS011;30039;51.462;6.892;2023-03-08T04:02:28;15.48;;;6.97;;
44328;SDS011;30039;51.462;6.892;2023-03-08T04:05:13;16.23;;;6.93;;
44328;SDS011;30039;51.462;6.892;2023-03-08T04:07:59;15.10;;;7.38;;
44328;SDS011;30039;51.462;6.892;2023-03-08T04:10:45;12.77;;;7.20;;
44328;SDS011;30039;51.462;6.892;2023-03-08T04:13:30;13.85;;;7.65;;
44328;SDS011;30039;51.462;6.892;2023-03-08T04:16:23;14.70;;;6.88;;
44328;SDS011;30039;51.462;6.892;2023-03-08T04:19:10;15.48;;;7.55;;
44328;SDS011;30039;51.462;6.892;2023-03-08T04:21:56;13.82;;;7.38;;
44328;SDS011;30039;51.462;6.892;2023-03-08T04:24:41;13.25;;;7.60;;
44328;SDS011;30039;51.462;6.892;2023-03-08T04:27:27;13.50;;;7.28;;
44328;SDS011;30039;51.462;6.892;2023-03-08T04:30:13;13.65;;;7.13;;
44328;SDS011;30039;51.462;6.892;2023-03-08T04:32:58;16.33;;;7.72;;
44328;SDS011;30039;51.462;6.892;2023-03-08T04:35:45;13.63;;;7.35;;
44328;SDS011;30039;51.462;6.892;2023-03-08T04:38:31;17.23;;;7.68;;
44328;SDS011;30039;51.462;6.892;2023-03-08T04:41:18;12.07;;;6.78;;
44328;SDS011;30039;51.462;6.892;2023-03-08T04:44:03;13.88;;;7.55;;
44328;SDS011;30039;51.462;6.892;2023-03-08T04:46:49;11.18;;;6.30;;
44328;SDS011;30039;51.462;6.892;2023-03-08T04:49:35;14.35;;;7.10;;
44328;SDS011;30039;51.462;6.892;2023-03-08T04:52:20;14.40;;;6.95;;
44328;SDS011;30039;51.462;6.892;2023-03-08T04:55:06;14.27;;;7.10;;
44328;SDS011;30039;51.462;6.892;2023-03-08T04:57:52;15.63;;;7.72;;
44328;SDS011;30039;51.462;6.892;2023-03-08T05:00:37;15.80;;;7.78;;
44328;SDS011;30039;51.462;6.892;2023-03-08T05:03:23;14.35;;;7.30;;
44328;SDS011;30039;51.462;6.892;2023-03-08T05:06:09;17.92;;;7.95;;
44328;SDS011;30039;51.462;6.892;2023-03-08T05:08:55;15.48;;;8.70;;
44328;SDS011;30039;51.462;6.892;2023-03-08T05:11:41;15.77;;;8.00;;
44328;SDS011;30039;51.462;6.892;2023-03-08T05:14:27;17.80;;;8.43;;
44328;SDS011;30039;51.462;6.892;2023-03-08T05:17:12;18.38;;;8.70;;
44328;SDS011;30039;51.462;6.892;2023-03-08T05:19:58;15.35;;;8.27;;
44328;SDS011;30039;51.462;6.892;2023-03-08T05:22:43;16.90;;;8.70;;
44328;SDS011;30039;51.462;6.892;2023-03-08T05:25:29;17.63;;;8.60;;
44328;SDS011;30039;51.462;6.892;2023-03-08T05:28:15;17.95;;;9.00;;
44328;SDS011;30039;51.462;6.892;2023-03-08T05:31:02;14.43;;;8.15;;
44328;SDS011;30039;51.462;6.892;2023-03-08T05:33:49;16.60;;;8.70;;
44328;SDS011;30039;51.462;6.892;2023-03-08T05:36:36;17.88;;;9.00;;
44328;SDS011;30039;51.462;6.892;2023-03-08T05:39:22;18.27;;;9.52;;
44328;SDS011;30039;51.462;6.892;2023-03-08T05:42:08;22.42;;;10.02;;
44328;SDS011;30039;51.462;6.892;2023-03-08T05:44:53;17.55;;;8.70;;
44328;SDS011;30039;51.462;6.892;2023-03-08T05:47:40;15.13;;;8.32;;
44328;SDS011;30039;51.462;6.892;2023-03-08T05:50:27;18.45;;;8.63;;
44328;SDS011;30039;51.462;6.892;2023-03-08T05:53:13;16.17;;;8.90;;
44328;SDS011;30039;51.462;6.892;2023-03-08T05:56:32;18.15;;;9.60;;
44328;SDS011;30039;51.462;6.892;2023-03-08T05:59:11;19.27;;;10.27;;
44328;SDS011;30039;51.462;6.892;2023-03-08T06:01:56;8.73;;;5.13;;
44328;SDS011;30039;51.462;6.892;2023-03-08T06:04:42;11.73;;;6.13;;
44328;SDS011;30039;51.462;6.892;2023-03-08T06:07:28;11.73;;;6.68;;
44328;SDS011;30039;51.462;6.892;2023-03-08T06:10:15;12.40;;;6.47;;
44328;SDS011;30039;51.462;6.892;2023-03-08T06:13:02;13.90;;;6.03;;
44328;SDS011;30039;51.462;6.892;2023-03-08T06:15:52;12.80;;;6.07;;
44328;SDS011;30039;51.462;6.892;2023-03-08T06:18:38;15.55;;;6.30;;
44328;SDS011;30039;51.462;6.892;2023-03-08T06:21:24;13.52;;;6.93;;
44328;SDS011;30039;51.462;6.892;2023-03-08T06:24:09;15.13;;;6.05;;
44328;SDS011;30039;51.462;6.892;2023-03-08T06:26:56;9.73;;;4.80;;
44328;SDS011;30039;51.462;6.892;2023-03-08T06:29:42;11.25;;;5.57;;
44328;SDS011;30039;51.462;6.892;2023-03-08T06:32:29;12.10;;;5.80;;
44328;SDS011;30039;51.462;6.892;2023-03-08T06:35:14;11.40;;;5.13;;
44328;SDS011;30039;51.462;6.892;2023-03-08T06:38:00;10.52;;;5.63;;
44328;SDS011;30039;51.462;6.892;2023-03-08T06:40:45;9.05;;;4.85;;
44328;SDS011;30039;51.462;6.892;2023-03-08T06:43:32;8.00;;;4.80;;
44328;SDS011;30039;51.462;6.892;2023-03-08T06:46:19;10.32;;;4.60;;
44328;SDS011;30039;51.462;6.892;2023-03-08T06:49:06;11.30;;;4.30;;
44328;SDS011;30039;51.462;6.892;2023-03-08T06:51:52;11.40;;;4.90;;
44328;SDS011;30039;51.462;6.892;2023-03-08T06:54:37;6.47;;;3.42;;
44328;SDS011;30039;51.462;6.892;2023-03-08T06:57:23;9.35;;;3.92;;
44328;SDS011;30039;51.462;6.892;2023-03-08T07:00:09;7.72;;;2.88;;
44328;SDS011;30039;51.462;6.892;2023-03-08T07:02:55;7.50;;;3.17;;
44328;SDS011;30039;51.462;6.892;2023-03-08T07:05:42;5.43;;;2.55;;
44328;SDS011;30039;51.462;6.892;2023-03-08T07:08:29;4.80;;;2.58;;
44328;SDS011;30039;51.462;6.892;2023-03-08T07:11:16;5.20;;;2.60;;
44328;SDS011;30039;51.462;6.892;2023-03-08T07:14:01;6.88;;;3.30;;
44328;SDS011;30039;51.462;6.892;2023-03-08T07:16:47;6.93;;;3.80;;
44328;SDS011;30039;51.462;6.892;2023-03-08T07:19:32;5.47;;;3.03;;
44328;SDS011;30039;51.462;6.892;2023-03-08T07:22:18;5.32;;;2.90;;
44328;SDS011;30039;51.462;6.892;2023-03-08T07:25:04;5.80;;;2.67;;
44328;SDS011;30039;51.462;6.892;2023-03-08T07:27:49;6.95;;;2.90;;
44328;SDS011;30039;51.462;6.892;2023-03-08T07:30:38;6.15;;;2.85;;
44328;SDS011;30039;51.462;6.892;2023-03-08T07:33:23;4.95;;;2.40;;
44328;SDS011;30039;51.462;6.892;2023-03-08T07:36:09;4.90;;;2.10;;
44328;SDS011;30039;51.462;6.892;2023-03-08T07:38:58;5.70;;;2.20;;
44328;SDS011;30039;51.462;6.892;2023-03-08T07:41:44;5.63;;;2.25;;
44328;SDS011;30039;51.462;6.892;2023-03-08T07:44:30;4.43;;;2.50;;
44328;SDS011;30039;51.462;6.892;2023-03-08T07:47:16;4.20;;;2.53;;
44328;SDS011;30039;51.462;6.892;2023-03-08T07:50:02;4.65;;;2.25;;
44328;SDS011;30039;51.462;6.892;2023-03-08T07:52:48;7.15;;;2.55;;
44328;SDS011;30039;51.462;6.892;2023-03-08T07:55:35;5.15;;;2.22;;
44328;SDS011;30039;51.462;6.892;2023-03-08T07:58:20;4.13;;;2.13;;
44328;SDS011;30039;51.462;6.892;2023-03-08T08:01:08;4.40;;;1.70;;
44328;SDS011;30039;51.462;6.892;2023-03-08T08:03:54;3.20;;;1.80;;
44328;SDS011;30039;51.462;6.892;2023-03-08T08:06:41;3.70;;;2.10;;
44328;SDS011;30039;51.462;6.892;2023-03-08T08:09:28;3.33;;;1.95;;
44328;SDS011;30039;51.462;6.892;2023-03-08T08:12:15;3.95;;;1.80;;
44328;SDS011;30039;51.462;6.892;2023-03-08T08:15:02;3.03;;;1.70;;
44328;SDS011;30039;51.462;6.892;2023-03-08T08:17:50;3.47;;;1.52;;
44328;SDS011;30039;51.462;6.892;2023-03-08T08:20:37;2.92;;;1.65;;
44328;SDS011;30039;51.462;6.892;2023-03-08T08:23:23;2.25;;;1.42;;
44328;SDS011;30039;51.462;6.892;2023-03-08T08:26:10;2.47;;;1.52;;
44328;SDS011;30039;51.462;6.892;2023-03-08T08:28:56;3.05;;;1.40;;
44328;SDS011;30039;51.462;6.892;2023-03-08T08:31:43;2.22;;;1.38;;
44328;SDS011;30039;51.462;6.892;2023-03-08T08:34:30;3.55;;;1.80;;
44328;SDS011;30039;51.462;6.892;2023-03-08T08:37:15;3.78;;;1.77;;
44328;SDS011;30039;51.462;6.892;2023-03-08T08:40:02;2.92;;;1.50;;
44328;SDS011;30039;51.462;6.892;2023-03-08T08:42:49;3.08;;;1.83;;
44328;SDS011;30039;51.462;6.892;2023-03-08T08:45:41;4.07;;;1.58;;
44328;SDS011;30039;51.462;6.892;2023-03-08T08:48:28;2.50;;;1.35;;
44328;SDS011;30039;51.462;6.892;2023-03-08T08:51:14;3.85;;;1.30;;
44328;SDS011;30039;51.462;6.892;2023-03-08T08:54:01;2.42;;;1.15;;
44328;SDS011;30039;51.462;6.892;2023-03-08T08:56:48;2.78;;;1.35;;
44328;SDS011;30039;51.462;6.892;2023-03-08T08:59:37;2.65;;;1.38;;
44328;SDS011;30039;51.462;6.892;2023-03-08T09:02:22;2.40;;;1.30;;
44328;SDS011;30039;51.462;6.892;2023-03-08T09:05:11;2.05;;;1.25;;
44328;SDS011;30039;51.462;6.892;2023-03-08T09:07:58;2.33;;;1.20;;
44328;SDS011;30039;51.462;6.892;2023-03-08T09:10:44;2.38;;;1.50;;
44328;SDS011;30039;51.462;6.892;2023-03-08T09:13:30;3.28;;;1.40;;
44328;SDS011;30039;51.462;6.892;2023-03-08T09:16:22;3.05;;;1.30;;
44328;SDS011;30039;51.462;6.892;2023-03-08T09:19:08;1.40;;;1.00;;
44328;SDS011;30039;51.462;6.892;2023-03-08T09:21:54;3.63;;;1.48;;
44328;SDS011;30039;51.462;6.892;2023-03-08T09:24:39;3.53;;;1.38;;
44328;SDS011;30039;51.462;6.892;2023-03-08T09:27:25;3.22;;;1.40;;
44328;SDS011;30039;51.462;6.892;2023-03-08T09:30:12;1.90;;;1.30;;
44328;SDS011;30039;51.462;6.892;2023-03-08T09:32:58;2.15;;;1.25;;
44328;SDS011;30039;51.462;6.892;2023-03-08T09:35:44;2.70;;;1.60;;
44328;SDS011;30039;51.462;6.892;2023-03-08T09:38:39;2.05;;;1.40;;
44328;SDS011;30039;51.462;6.892;2023-03-08T09:41:34;5.20;;;1.63;;
44328;SDS011;30039;51.462;6.892;2023-03-08T09:53:16;2.92;;;1.60;;
44328;SDS011;30039;51.462;6.892;2023-03-08T09:59:29;2.22;;;1.60;;
44328;SDS011;30039;51.462;6.892;2023-03-08T10:02:21;2.97;;;1.55;;
44328;SDS011;30039;51.462;6.892;2023-03-08T10:05:21;2.67;;;1.50;;
44328;SDS011;30039;51.462;6.892;2023-03-08T10:10:58;4.43;;;2.00;;
44328;SDS011;30039;51.462;6.892;2023-03-08T10:13:49;3.47;;;2.08;;
44328;SDS011;30039;51.462;6.892;2023-03-08T10:16:38;2.78;;;1.90;;
44328;SDS011;30039;51.462;6.892;2023-03-08T10:19:31;2.53;;;1.63;;
44328;SDS011;30039;51.462;6.892;2023-03-08T10:22:25;2.70;;;1.67;;
44328;SDS011;30039;51.462;6.892;2023-03-08T10:25:22;2.95;;;1.70;;
44328;SDS011;30039;51.462;6.892;2023-03-08T10:28:11;2.20;;;1.58;;
44328;SDS011;30039;51.462;6.892;2023-03-08T10:30:58;3.85;;;1.50;;
44328;SDS011;30039;51.462;6.892;2023-03-08T10:33:44;1.90;;;1.40;;
44328;SDS011;30039;51.462;6.892;2023-03-08T10:36:30;4.28;;;1.80;;
44328;SDS011;30039;51.462;6.892;2023-03-08T10:39:17;1.80;;;1.27;;
44328;SDS011;30039;51.462;6.892;2023-03-08T10:42:12;2.22;;;1.48;;
44328;SDS011;30039;51.462;6.892;2023-03-08T10:44:59;2.28;;;1.70;;
44328;SDS011;30039;51.462;6.892;2023-03-08T10:47:52;3.60;;;2.00;;
44328;SDS011;30039;51.462;6.892;2023-03-08T10:50:38;2.80;;;2.03;;
44328;SDS011;30039;51.462;6.892;2023-03-08T10:53:24;3.58;;;1.92;;
44328;SDS011;30039;51.462;6.892;2023-03-08T10:56:19;2.90;;;1.80;;
44328;SDS011;30039;51.462;6.892;2023-03-08T10:59:14;2.58;;;1.52;;
44328;SDS011;30039;51.462;6.892;2023-03-08T11:02:02;3.00;;;1.73;;
44328;SDS011;30039;51.462;6.892;2023-03-08T11:04:59;3.00;;;1.80;;
44328;SDS011;30039;51.462;6.892;2023-03-08T11:07:50;2.72;;;1.90;;
44328;SDS011;30039;51.462;6.892;2023-03-08T11:10:36;2.17;;;1.58;;
44328;SDS011;30039;51.462;6.892;2023-03-08T11:13:29;2.08;;;1.60;;
44328;SDS011;30039;51.462;6.892;2023-03-08T11:16:31;2.65;;;1.83;;
44328;SDS011;30039;51.462;6.892;2023-03-08T11:25:15;2.35;;;1.90;;
44328;SDS011;30039;51.462;6.892;2023-03-08T11:36:37;3.85;;;2.22;;
44328;SDS011;30039;51.462;6.892;2023-03-08T11:39:27;4.45;;;2.10;;
44328;SDS011;30039;51.462;6.892;2023-03-08T11:45:05;2.65;;;1.98;;
44328;SDS011;30039;51.462;6.892;2023-03-08T11:47:56;2.55;;;2.10;;
44328;SDS011;30039;51.462;6.892;2023-03-08T11:50:46;2.95;;;2.10;;
44328;SDS011;30039;51.462;6.892;2023-03-08T11:56:42;3.75;;;2.08;;
44328;SDS011;30039;51.462;6.892;2023-03-08T11:59:31;2.67;;;2.08;;
44328;SDS011;30039;51.462;6.892;2023-03-08T12:02:26;2.35;;;1.88;;
44328;SDS011;30039;51.462;6.892;2023-03-08T12:05:27;2.75;;;1.90;;
44328;SDS011;30039;51.462;6.892;2023-03-08T12:08:15;2.72;;;1.95;;
44328;SDS011;30039;51.462;6.892;2023-03-08T12:13:56;3.65;;;2.42;;
44328;SDS011;30039;51.462;6.892;2023-03-08T12:16:47;2.80;;;2.03;;
44328;SDS011;30039;51.462;6.892;2023-03-08T12:33:54;3.28;;;2.25;;
44328;SDS011;30039;51.462;6.892;2023-03-08T12:36:41;2.50;;;1.90;;
44328;SDS011;30039;51.462;6.892;2023-03-08T12:39:28;2.65;;;2.30;;
44328;SDS011;30039;51.462;6.892;2023-03-08T12:42:15;3.05;;;2.42;;
44328;SDS011;30039;51.462;6.892;2023-03-08T13:02:00;3.85;;;2.90;;
44328;SDS011;30039;51.462;6.892;2023-03-08T13:04:46;3.67;;;2.63;;
44328;SDS011;30039;51.462;6.892;2023-03-08T13:07:36;5.25;;;3.10;;
44328;SDS011;30039;51.462;6.892;2023-03-08T13:10:25;3.63;;;2.75;;
44328;SDS011;30039;51.462;6.892;2023-03-08T13:18:59;7.13;;;3.47;;
44328;SDS011;30039;51.462;6.892;2023-03-08T13:24:39;3.67;;;2.88;;
44328;SDS011;30039;51.462;6.892;2023-03-08T13:27:34;4.85;;;3.00;;
44328;SDS011;30039;51.462;6.892;2023-03-08T13:30:28;2.90;;;2.40;;
44328;SDS011;30039;51.462;6.892;2023-03-08T13:36:16;4.47;;;3.30;;
44328;SDS011;30039;51.462;6.892;2023-03-08T13:41:50;4.53;;;3.38;;
44328;SDS011;30039;51.462;6.892;2023-03-08T13:44:37;5.18;;;3.03;;
44328;SDS011;30039;51.462;6.892;2023-03-08T13:47:26;5.07;;;3.22;;
44328;SDS011;30039;51.462;6.892;2023-03-08T13:53:36;5.32;;;3.63;;
44328;SDS011;30039;51.462;6.892;2023-03-08T13:56:26;3.25;;;2.75;;
44328;SDS011;30039;51.462;6.892;2023-03-08T13:59:16;4.70;;;3.22;;
44328;SDS011;30039;51.462;6.892;2023-03-08T14:02:13;5.45;;;3.78;;
44328;SDS011;30039;51.462;6.892;2023-03-08T14:05:00;8.10;;;3.50;;
44328;SDS011;30039;51.462;6.892;2023-03-08T14:07:54;4.07;;;3.65;;
44328;SDS011;30039;51.462;6.892;2023-03-08T14:10:43;5.10;;;3.53;;
44328;SDS011;30039;51.462;6.892;2023-03-08T14:13:30;5.20;;;3.92;;
44328;SDS011;30039;51.462;6.892;2023-03-08T14:19:10;4.95;;;3.95;;
44328;SDS011;30039;51.462;6.892;2023-03-08T14:21:57;3.95;;;3.03;;
44328;SDS011;30039;51.462;6.892;2023-03-08T14:24:48;4.97;;;4.00;;
44328;SDS011;30039;51.462;6.892;2023-03-08T14:27:38;6.82;;;4.03;;
44328;SDS011;30039;51.462;6.892;2023-03-08T14:30:28;5.82;;;4.00;;
44328;SDS011;30039;51.462;6.892;2023-03-08T14:36:00;6.40;;;4.55;;
44328;SDS011;30039;51.462;6.892;2023-03-08T14:38:47;6.43;;;4.57;;
44328;SDS011;30039;51.462;6.892;2023-03-08T14:41:35;6.28;;;4.47;;
44328;SDS011;30039;51.462;6.892;2023-03-08T14:44:22;7.53;;;5.05;;
44328;SDS011;30039;51.462;6.892;2023-03-08T14:47:16;8.40;;;5.40;;
44328;SDS011;30039;51.462;6.892;2023-03-08T14:50:16;8.00;;;5.22;;
44328;SDS011;30039;51.462;6.892;2023-03-08T14:53:02;9.20;;;5.45;;
44328;SDS011;30039;51.462;6.892;2023-03-08T14:55:48;10.45;;;6.15;;
44328;SDS011;30039;51.462;6.892;2023-03-08T14:58:35;8.48;;;5.47;;
44328;SDS011;30039;51.462;6.892;2023-03-08T15:01:23;8.88;;;6.22;;
44328;SDS011;30039;51.462;6.892;2023-03-08T15:04:16;8.55;;;5.82;;
44328;SDS011;30039;51.462;6.892;2023-03-08T15:07:02;9.52;;;5.70;;
44328;SDS011;30039;51.462;6.892;2023-03-08T15:09:49;8.30;;;5.40;;
44328;SDS011;30039;51.462;6.892;2023-03-08T15:12:36;7.38;;;5.35;;
44328;SDS011;30039;51.462;6.892;2023-03-08T15:15:21;7.90;;;5.47;;
44328;SDS011;30039;51.462;6.892;2023-03-08T15:18:07;7.22;;;5.57;;
44328;SDS011;30039;51.462;6.892;2023-03-08T15:20:53;7.05;;;5.20;;
44328;SDS011;30039;51.462;6.892;2023-03-08T15:23:38;6.15;;;4.85;;
44328;SDS011;30039;51.462;6.892;2023-03-08T15:26:26;7.93;;;5.72;;
44328;SDS011;30039;51.462;6.892;2023-03-08T15:29:28;7.55;;;5.82;;
44328;SDS011;30039;51.462;6.892;2023-03-08T15:32:14;8.43;;;6.07;;
44328;SDS011;30039;51.462;6.892;2023-03-08T15:35:00;6.70;;;5.05;;
44328;SDS011;30039;51.462;6.892;2023-03-08T15:37:45;8.30;;;5.28;;
44328;SDS011;30039;51.462;6.892;2023-03-08T15:40:31;8.82;;;6.55;;
44328;SDS011;30039;51.462;6.892;2023-03-08T15:43:17;7.85;;;5.78;;
44328;SDS011;30039;51.462;6.892;2023-03-08T15:46:03;11.57;;;6.60;;
44328;SDS011;30039;51.462;6.892;2023-03-08T15:48:48;9.57;;;6.70;;
44328;SDS011;30039;51.462;6.892;2023-03-08T15:51:36;8.70;;;5.97;;
44328;SDS011;30039;51.462;6.892;2023-03-08T15:54:22;9.57;;;6.53;;
44328;SDS011;30039;51.462;6.892;2023-03-08T15:57:08;10.63;;;6.72;;
44328;SDS011;30039;51.462;6.892;2023-03-08T15:59:53;9.43;;;6.80;;
44328;SDS011;30039;51.462;6.892;2023-03-08T16:02:39;8.27;;;6.72;;
44328;SDS011;30039;51.462;6.892;2023-03-08T16:05:25;8.85;;;6.82;;
44328;SDS011;30039;51.462;6.892;2023-03-08T16:08:12;10.30;;;7.05;;
44328;SDS011;30039;51.462;6.892;2023-03-08T16:10:58;11.68;;;7.47;;
44328;SDS011;30039;51.462;6.892;2023-03-08T16:13:49;11.20;;;7.40;;
44328;SDS011;30039;51.462;6.892;2023-03-08T16:16:35;9.30;;;6.47;;
44328;SDS011;30039;51.462;6.892;2023-03-08T16:19:21;11.57;;;7.32;;
44328;SDS011;30039;51.462;6.892;2023-03-08T16:22:06;9.93;;;6.88;;
44328;SDS011;30039;51.462;6.892;2023-03-08T16:25:00;8.07;;;6.20;;
44328;SDS011;30039;51.462;6.892;2023-03-08T16:27:47;8.90;;;6.05;;
44328;SDS011;30039;51.462;6.892;2023-03-08T16:30:35;7.50;;;5.70;;
44328;SDS011;30039;51.462;6.892;2023-03-08T16:33:24;8.63;;;5.72;;
44328;SDS011;30039;51.462;6.892;2023-03-08T16:36:11;8.10;;;6.22;;
44328;SDS011;30039;51.462;6.892;2023-03-08T16:38:57;17.95;;;9.27;;
44328;SDS011;30039;51.462;6.892;2023-03-08T16:41:43;9.88;;;6.40;;
44328;SDS011;30039;51.462;6.892;2023-03-08T16:44:29;10.57;;;6.38;;
44328;SDS011;30039;51.462;6.892;2023-03-08T16:47:15;9.02;;;6.30;;
44328;SDS011;30039;51.462;6.892;2023-03-08T16:50:01;10.60;;;6.60;;
44328;SDS011;30039;51.462;6.892;2023-03-08T16:52:47;10.07;;;6.35;;
44328;SDS011;30039;51.462;6.892;2023-03-08T16:55:34;12.82;;;7.63;;
44328;SDS011;30039;51.462;6.892;2023-03-08T16:58:19;11.70;;;7.47;;
44328;SDS011;30039;51.462;6.892;2023-03-08T17:01:11;11.90;;;7.72;;
44328;SDS011;30039;51.462;6.892;2023-03-08T17:03:57;10.77;;;7.93;;
44328;SDS011;30039;51.462;6.892;2023-03-08T17:06:44;12.60;;;8.18;;
44328;SDS011;30039;51.462;6.892;2023-03-08T17:09:29;14.07;;;8.45;;
44328;SDS011;30039;51.462;6.892;2023-03-08T17:12:15;16.10;;;10.02;;
44328;SDS011;30039;51.462;6.892;2023-03-08T17:15:01;16.48;;;10.85;;
44328;SDS011;30039;51.462;6.892;2023-03-08T17:17:49;16.42;;;10.93;;
44328;SDS011;30039;51.462;6.892;2023-03-08T17:20:37;21.38;;;12.35;;
44328;SDS011;30039;51.462;6.892;2023-03-08T17:23:22;21.83;;;12.90;;
44328;SDS011;30039;51.462;6.892;2023-03-08T17:26:09;18.67;;;12.57;;
44328;SDS011;30039;51.462;6.892;2023-03-08T17:28:55;22.90;;;12.85;;
44328;SDS011;30039;51.462;6.892;2023-03-08T17:31:40;21.08;;;13.00;;
44328;SDS011;30039;51.462;6.892;2023-03-08T17:34:26;22.10;;;13.02;;
44328;SDS011;30039;51.462;6.892;2023-03-08T17:37:13;21.42;;;12.85;;
44328;SDS011;30039;51.462;6.892;2023-03-08T17:40:00;20.30;;;12.30;;
44328;SDS011;30039;51.462;6.892;2023-03-08T17:42:47;23.92;;;13.25;;
44328;SDS011;30039;51.462;6.892;2023-03-08T17:45:34;24.73;;;13.60;;
44328;SDS011;30039;51.462;6.892;2023-03-08T17:48:19;26.23;;;13.02;;
44328;SDS011;30039;51.462;6.892;2023-03-08T17:51:09;21.42;;;12.55;;
44328;SDS011;30039;51.462;6.892;2023-03-08T17:53:56;22.58;;;13.27;;
44328;SDS011;30039;51.462;6.892;2023-03-08T17:56:42;23.35;;;13.45;;
44328;SDS011;30039;51.462;6.892;2023-03-08T17:59:28;21.38;;;12.90;;
44328;SDS011;30039;51.462;6.892;2023-03-08T18:02:14;19.63;;;12.05;;
44328;SDS011;30039;51.462;6.892;2023-03-08T18:05:00;23.33;;;13.13;;
44328;SDS011;30039;51.462;6.892;2023-03-08T18:07:46;19.60;;;11.85;;
44328;SDS011;30039;51.462;6.892;2023-03-08T18:10:32;20.00;;;11.90;;
44328;SDS011;30039;51.462;6.892;2023-03-08T18:13:17;17.90;;;10.77;;
44328;SDS011;30039;51.462;6.892;2023-03-08T18:16:03;20.05;;;11.73;;
44328;SDS011;30039;51.462;6.892;2023-03-08T18:18:49;19.10;;;11.88;;
44328;SDS011;30039;51.462;6.892;2023-03-08T18:21:35;21.88;;;12.75;;